sensor_id;sensor_type;location;lat;lon;timestamp;temperature;humidity
52435;DHT22;38354;52.892;6.148;2024-02-14T04:00:42;9.30;99.90
52435;DHT22;38354;52.892;6.148;2024-02-14T04:03:12;9.30;99.90
52435;DHT22;38354;52.892;6.148;2024-02-14T04:05:38;9.30;99.90
52435;DHT22;38354;52.892;6.148;2024-02-14T04:08:05;9.40;99.90
52435;DHT22;38354;52.892;6.148;2024-02-14T04:10:36;9.40;99.90
52435;DHT22;38354;52.892;6.148;2024-02-14T04:13:03;9.40;99.90
52435;DHT22;38354;52.892;6.148;2024-02-14T04:15:30;9.40;99.90
52435;DHT22;38354;52.892;6.148;2024-02-14T04:17:56;9.40;99.90
52435;DHT22;38354;52.892;6.148;2024-02-14T04:20:22;9.50;99.90
52435;DHT22;38354;52.892;6.148;2024-02-14T04:22:47;9.50;99.90
52435;DHT22;38354;52.892;6.148;2024-02-14T04:25:13;9.50;99.90
52435;DHT22;38354;52.892;6.148;2024-02-14T04:27:39;9.50;99.90
52435;DHT22;38354;52.892;6.148;2024-02-14T04:30:05;9.50;99.90
52435;DHT22;38354;52.892;6.148;2024-02-14T04:32:31;9.60;99.90
52435;DHT22;38354;52.892;6.148;2024-02-14T04:34:58;9.60;99.90
52435;DHT22;38354;52.892;6.148;2024-02-14T04:37:24;9.60;99.90
52435;DHT22;38354;52.892;6.148;2024-02-14T04:39:49;9.60;99.90
52435;DHT22;38354;52.892;6.148;2024-02-14T04:42:15;9.60;99.90
52435;DHT22;38354;52.892;6.148;2024-02-14T04:44:41;9.60;99.90
52435;DHT22;38354;52.892;6.148;2024-02-14T04:47:07;9.60;99.90
52435;DHT22;38354;52.892;6.148;2024-02-14T04:49:35;9.60;99.90
52435;DHT22;38354;52.892;6.148;2024-02-14T04:52:01;9.60;99.90
52435;DHT22;38354;52.892;6.148;2024-02-14T04:54:26;9.60;99.90
52435;DHT22;38354;52.892;6.148;2024-02-14T04:56:53;9.70;99.90
52435;DHT22;38354;52.892;6.148;2024-02-14T04:59:19;9.70;99.90
52435;DHT22;38354;52.892;6.148;2024-02-14T05:01:45;9.60;99.90
52435;DHT22;38354;52.892;6.148;2024-02-14T05:04:12;9.70;99.90
52435;DHT22;38354;52.892;6.148;2024-02-14T05:06:38;9.70;99.90
52435;DHT22;38354;52.892;6.148;2024-02-14T05:09:05;9.60;99.90
52435;DHT22;38354;52.892;6.148;2024-02-14T05:11:31;9.60;99.90
52435;DHT22;38354;52.892;6.148;2024-02-14T05:13:56;9.70;99.90
52435;DHT22;38354;52.892;6.148;2024-02-14T05:16:22;9.70;99.90
52435;DHT22;38354;52.892;6.148;2024-02-14T05:18:49;9.70;99.90
52435;DHT22;38354;52.892;6.148;2024-02-14T05:21:14;9.70;99.90
52435;DHT22;38354;52.892;6.148;2024-02-14T05:23:40;9.70;99.90
52435;DHT22;38354;52.892;6.148;2024-02-14T05:26:06;9.70;99.90
52435;DHT22;38354;52.892;6.148;2024-02-14T05:28:32;9.70;99.90
52435;DHT22;38354;52.892;6.148;2024-02-14T05:30:59;9.70;99.90
52435;DHT22;38354;52.892;6.148;2024-02-14T05:33:26;9.70;99.90
52435;DHT22;38354;52.892;6.148;2024-02-14T05:35:52;9.70;99.90
52435;DHT22;38354;52.892;6.148;2024-02-14T05:38:18;9.70;99.90
52435;DHT22;38354;52.892;6.148;2024-02-14T05:40:47;9.70;99.90
52435;DHT22;38354;52.892;6.148;2024-02-14T05:43:13;9.70;99.90
52435;DHT22;38354;52.892;6.148;2024-02-14T05:45:40;9.70;99.90
52435;DHT22;38354;52.892;6.148;2024-02-14T05:48:07;9.70;99.90
52435;DHT22;38354;52.892;6.148;2024-02-14T05:50:33;9.70;99.90
52435;DHT22;38354;52.892;6.148;2024-02-14T05:52:59;9.70;99.90
52435;DHT22;38354;52.892;6.148;2024-02-14T05:55:25;9.70;99.90
52435;DHT22;38354;52.892;6.148;2024-02-14T05:57:51;9.70;99.90
52435;DHT22;38354;52.892;6.148;2024-02-14T06:00:18;9.70;99.90
52435;DHT22;38354;52.892;6.148;2024-02-14T06:02:45;9.80;99.90
52435;DHT22;38354;52.892;6.148;2024-02-14T06:05:10;9.80;99.90
52435;DHT22;38354;52.892;6.148;2024-02-14T06:07:37;9.80;99.90
52435;DHT22;38354;52.892;6.148;2024-02-14T06:10:02;9.80;99.90
52435;DHT22;38354;52.892;6.148;2024-02-14T06:12:28;9.80;99.90
52435;DHT22;38354;52.892;6.148;2024-02-14T06:14:55;9.70;99.90
52435;DHT22;38354;52.892;6.148;2024-02-14T06:17:21;9.70;99.90
52435;DHT22;38354;52.892;6.148;2024-02-14T06:19:46;9.80;99.90
52435;DHT22;38354;52.892;6.148;2024-02-14T06:22:12;9.80;99.90
52435;DHT22;38354;52.892;6.148;2024-02-14T06:24:38;9.80;99.90
52435;DHT22;38354;52.892;6.148;2024-02-14T06:27:04;9.80;99.90
52435;DHT22;38354;52.892;6.148;2024-02-14T06:29:30;9.80;99.90
52435;DHT22;38354;52.892;6.148;2024-02-14T06:31:55;9.80;99.90
52435;DHT22;38354;52.892;6.148;2024-02-14T06:34:21;9.80;99.90
52435;DHT22;38354;52.892;6.148;2024-02-14T06:36:47;9.80;99.90
52435;DHT22;38354;52.892;6.148;2024-02-14T06:39:12;9.90;99.90
52435;DHT22;38354;52.892;6.148;2024-02-14T06:41:38;9.90;99.90
52435;DHT22;38354;52.892;6.148;2024-02-14T06:44:05;9.90;99.90
52435;DHT22;38354;52.892;6.148;2024-02-14T06:46:31;9.90;99.90
52435;DHT22;38354;52.892;6.148;2024-02-14T06:48:57;9.80;99.90
52435;DHT22;38354;52.892;6.148;2024-02-14T06:51:23;9.90;99.90
52435;DHT22;38354;52.892;6.148;2024-02-14T06:53:49;9.90;99.90
52435;DHT22;38354;52.892;6.148;2024-02-14T06:56:15;9.90;99.90
52435;DHT22;38354;52.892;6.148;2024-02-14T06:58:41;9.90;99.90
52435;DHT22;38354;52.892;6.148;2024-02-14T07:01:07;9.90;99.90
52435;DHT22;38354;52.892;6.148;2024-02-14T07:03:33;9.90;99.90
52435;DHT22;38354;52.892;6.148;2024-02-14T07:05:59;9.90;99.90
52435;DHT22;38354;52.892;6.148;2024-02-14T07:08:25;10.00;99.90
52435;DHT22;38354;52.892;6.148;2024-02-14T07:10:54;9.90;99.90
52435;DHT22;38354;52.892;6.148;2024-02-14T07:13:20;9.90;99.90
52435;DHT22;38354;52.892;6.148;2024-02-14T07:15:46;10.00;99.90
52435;DHT22;38354;52.892;6.148;2024-02-14T07:18:12;10.00;99.90
52435;DHT22;38354;52.892;6.148;2024-02-14T07:20:37;10.00;99.90
52435;DHT22;38354;52.892;6.148;2024-02-14T07:23:04;10.00;99.90
52435;DHT22;38354;52.892;6.148;2024-02-14T07:25:30;10.00;99.90
52435;DHT22;38354;52.892;6.148;2024-02-14T07:27:56;10.00;99.90
52435;DHT22;38354;52.892;6.148;2024-02-14T07:30:22;10.00;99.90
52435;DHT22;38354;52.892;6.148;2024-02-14T07:32:48;10.00;99.90
52435;DHT22;38354;52.892;6.148;2024-02-14T07:35:13;10.00;99.90
52435;DHT22;38354;52.892;6.148;2024-02-14T07:37:40;10.00;99.90
52435;DHT22;38354;52.892;6.148;2024-02-14T07:40:07;10.10;99.90
52435;DHT22;38354;52.892;6.148;2024-02-14T07:42:33;10.10;99.90
52435;DHT22;38354;52.892;6.148;2024-02-14T07:44:59;10.10;99.90
52435;DHT22;38354;52.892;6.148;2024-02-14T07:47:24;10.10;99.90
52435;DHT22;38354;52.892;6.148;2024-02-14T07:49:50;10.10;99.90
52435;DHT22;38354;52.892;6.148;2024-02-14T07:52:18;10.10;99.90
52435;DHT22;38354;52.892;6.148;2024-02-14T07:54:44;10.10;99.90
52435;DHT22;38354;52.892;6.148;2024-02-14T07:57:10;10.10;99.90
52435;DHT22;38354;52.892;6.148;2024-02-14T07:59:36;10.10;99.90
52435;DHT22;38354;52.892;6.148;2024-02-14T08:02:01;10.20;99.90
52435;DHT22;38354;52.892;6.148;2024-02-14T08:04:28;10.20;99.90
52435;DHT22;38354;52.892;6.148;2024-02-14T08:06:54;10.20;99.90
52435;DHT22;38354;52.892;6.148;2024-02-14T08:09:19;10.20;99.90
52435;DHT22;38354;52.892;6.148;2024-02-14T08:11:45;10.20;99.90
52435;DHT22;38354;52.892;6.148;2024-02-14T08:14:11;10.30;99.90
52435;DHT22;38354;52.892;6.148;2024-02-14T08:16:38;10.30;99.90
52435;DHT22;38354;52.892;6.148;2024-02-14T08:19:03;10.30;99.90
52435;DHT22;38354;52.892;6.148;2024-02-14T08:21:29;10.30;99.90
52435;DHT22;38354;52.892;6.148;2024-02-14T08:23:55;10.30;99.90
52435;DHT22;38354;52.892;6.148;2024-02-14T08:26:21;10.30;99.90
52435;DHT22;38354;52.892;6.148;2024-02-14T08:28:48;10.40;99.90
52435;DHT22;38354;52.892;6.148;2024-02-14T08:31:14;10.40;99.90
52435;DHT22;38354;52.892;6.148;2024-02-14T08:33:40;10.40;99.90
52435;DHT22;38354;52.892;6.148;2024-02-14T08:36:06;10.40;99.90
52435;DHT22;38354;52.892;6.148;2024-02-14T08:38:35;10.40;99.90
52435;DHT22;38354;52.892;6.148;2024-02-14T08:41:02;10.50;99.90
52435;DHT22;38354;52.892;6.148;2024-02-14T08:43:28;10.50;99.90
52435;DHT22;38354;52.892;6.148;2024-02-14T08:45:57;10.50;99.90
52435;DHT22;38354;52.892;6.148;2024-02-14T08:48:23;10.60;99.90
52435;DHT22;38354;52.892;6.148;2024-02-14T08:50:49;10.60;99.90
52435;DHT22;38354;52.892;6.148;2024-02-14T08:53:16;10.60;99.90
52435;DHT22;38354;52.892;6.148;2024-02-14T08:55:41;10.70;99.90
52435;DHT22;38354;52.892;6.148;2024-02-14T08:58:07;10.60;99.90
52435;DHT22;38354;52.892;6.148;2024-02-14T09:00:35;10.70;99.90
52435;DHT22;38354;52.892;6.148;2024-02-14T09:03:02;10.70;99.90
52435;DHT22;38354;52.892;6.148;2024-02-14T09:05:28;10.80;99.90
52435;DHT22;38354;52.892;6.148;2024-02-14T09:07:54;10.80;99.90
52435;DHT22;38354;52.892;6.148;2024-02-14T09:10:20;10.80;99.90
52435;DHT22;38354;52.892;6.148;2024-02-14T09:12:47;10.90;99.90
52435;DHT22;38354;52.892;6.148;2024-02-14T09:15:13;10.90;99.90
52435;DHT22;38354;52.892;6.148;2024-02-14T09:17:39;10.90;99.90
52435;DHT22;38354;52.892;6.148;2024-02-14T09:20:07;10.90;99.90
52435;DHT22;38354;52.892;6.148;2024-02-14T09:22:35;11.00;99.90
52435;DHT22;38354;52.892;6.148;2024-02-14T09:25:02;11.00;99.90
52435;DHT22;38354;52.892;6.148;2024-02-14T09:27:33;11.00;99.90
52435;DHT22;38354;52.892;6.148;2024-02-14T09:30:04;11.10;99.90
52435;DHT22;38354;52.892;6.148;2024-02-14T09:32:31;11.00;99.90
52435;DHT22;38354;52.892;6.148;2024-02-14T09:34:59;11.00;99.90
52435;DHT22;38354;52.892;6.148;2024-02-14T09:37:25;11.10;99.90
52435;DHT22;38354;52.892;6.148;2024-02-14T09:39:51;11.00;99.90
52435;DHT22;38354;52.892;6.148;2024-02-14T09:42:21;11.10;99.90
52435;DHT22;38354;52.892;6.148;2024-02-14T09:44:50;11.00;99.90
52435;DHT22;38354;52.892;6.148;2024-02-14T09:47:17;11.10;99.90
52435;DHT22;38354;52.892;6.148;2024-02-14T09:49:44;11.10;99.90
52435;DHT22;38354;52.892;6.148;2024-02-14T09:52:11;11.10;99.90
52435;DHT22;38354;52.892;6.148;2024-02-14T09:54:38;11.10;99.90
52435;DHT22;38354;52.892;6.148;2024-02-14T09:57:05;11.10;99.90
52435;DHT22;38354;52.892;6.148;2024-02-14T09:59:32;11.10;99.90
52435;DHT22;38354;52.892;6.148;2024-02-14T10:01:58;11.10;99.90
52435;DHT22;38354;52.892;6.148;2024-02-14T10:04:24;11.10;99.90
52435;DHT22;38354;52.892;6.148;2024-02-14T10:06:51;11.10;99.90
52435;DHT22;38354;52.892;6.148;2024-02-14T10:09:21;11.10;99.90
52435;DHT22;38354;52.892;6.148;2024-02-14T10:11:47;11.10;99.90
52435;DHT22;38354;52.892;6.148;2024-02-14T10:14:13;11.10;99.90
52435;DHT22;38354;52.892;6.148;2024-02-14T10:16:39;11.20;99.90
52435;DHT22;38354;52.892;6.148;2024-02-14T10:19:05;11.20;99.90
52435;DHT22;38354;52.892;6.148;2024-02-14T10:21:33;11.20;99.90
52435;DHT22;38354;52.892;6.148;2024-02-14T10:24:02;11.20;99.90
52435;DHT22;38354;52.892;6.148;2024-02-14T10:26:30;11.20;99.90
52435;DHT22;38354;52.892;6.148;2024-02-14T10:28:58;11.20;99.90
52435;DHT22;38354;52.892;6.148;2024-02-14T10:31:25;11.20;99.90
52435;DHT22;38354;52.892;6.148;2024-02-14T10:33:54;11.20;99.90
52435;DHT22;38354;52.892;6.148;2024-02-14T10:36:22;11.20;99.90
52435;DHT22;38354;52.892;6.148;2024-02-14T10:38:50;11.20;99.90
52435;DHT22;38354;52.892;6.148;2024-02-14T10:41:17;11.20;99.90
52435;DHT22;38354;52.892;6.148;2024-02-14T10:43:42;11.30;99.90
52435;DHT22;38354;52.892;6.148;2024-02-14T10:46:19;11.30;99.90
52435;DHT22;38354;52.892;6.148;2024-02-14T10:48:47;11.30;99.90
52435;DHT22;38354;52.892;6.148;2024-02-14T10:51:15;11.30;99.90
52435;DHT22;38354;52.892;6.148;2024-02-14T10:53:44;11.30;99.90
52435;DHT22;38354;52.892;6.148;2024-02-14T10:56:14;11.30;99.90
52435;DHT22;38354;52.892;6.148;2024-02-14T10:58:44;11.30;99.90
52435;DHT22;38354;52.892;6.148;2024-02-14T11:01:11;11.30;99.90
52435;DHT22;38354;52.892;6.148;2024-02-14T11:03:38;11.30;99.90
52435;DHT22;38354;52.892;6.148;2024-02-14T11:06:03;11.30;99.90
52435;DHT22;38354;52.892;6.148;2024-02-14T11:08:30;11.30;99.90
52435;DHT22;38354;52.892;6.148;2024-02-14T11:11:00;11.30;99.90
52435;DHT22;38354;52.892;6.148;2024-02-14T11:13:30;11.30;99.90
52435;DHT22;38354;52.892;6.148;2024-02-14T11:16:02;11.30;99.90
52435;DHT22;38354;52.892;6.148;2024-02-14T11:18:30;11.30;99.90
52435;DHT22;38354;52.892;6.148;2024-02-14T11:20:56;11.30;99.90
52435;DHT22;38354;52.892;6.148;2024-02-14T11:23:24;11.40;99.90
52435;DHT22;38354;52.892;6.148;2024-02-14T11:26:02;11.40;99.90
52435;DHT22;38354;52.892;6.148;2024-02-14T11:28:29;11.30;99.90
52435;DHT22;38354;52.892;6.148;2024-02-14T11:31:00;11.30;99.90
52435;DHT22;38354;52.892;6.148;2024-02-14T11:33:26;11.30;99.90
52435;DHT22;38354;52.892;6.148;2024-02-14T11:35:53;11.30;99.90
52435;DHT22;38354;52.892;6.148;2024-02-14T11:38:21;11.30;99.90
52435;DHT22;38354;52.892;6.148;2024-02-14T11:40:49;11.40;99.90
52435;DHT22;38354;52.892;6.148;2024-02-14T11:43:19;11.40;99.90
52435;DHT22;38354;52.892;6.148;2024-02-14T11:45:46;11.40;99.90
52435;DHT22;38354;52.892;6.148;2024-02-14T11:48:15;11.40;99.90
52435;DHT22;38354;52.892;6.148;2024-02-14T11:50:51;11.50;99.90
52435;DHT22;38354;52.892;6.148;2024-02-14T11:53:18;11.50;99.90
52435;DHT22;38354;52.892;6.148;2024-02-14T11:55:47;11.40;99.90
52435;DHT22;38354;52.892;6.148;2024-02-14T11:58:17;11.40;99.90
52435;DHT22;38354;52.892;6.148;2024-02-14T12:00:44;11.50;99.90
52435;DHT22;38354;52.892;6.148;2024-02-14T12:03:18;11.50;99.90
52435;DHT22;38354;52.892;6.148;2024-02-14T12:05:47;11.50;99.90
52435;DHT22;38354;52.892;6.148;2024-02-14T12:08:14;11.60;99.90
52435;DHT22;38354;52.892;6.148;2024-02-14T12:10:42;11.60;99.90
52435;DHT22;38354;52.892;6.148;2024-02-14T12:13:12;11.60;99.90
52435;DHT22;38354;52.892;6.148;2024-02-14T12:15:45;11.60;99.90
52435;DHT22;38354;52.892;6.148;2024-02-14T12:18:12;11.60;99.90
52435;DHT22;38354;52.892;6.148;2024-02-14T12:20:39;11.60;99.90
52435;DHT22;38354;52.892;6.148;2024-02-14T12:23:05;11.60;99.90
52435;DHT22;38354;52.892;6.148;2024-02-14T12:25:31;11.60;99.90
52435;DHT22;38354;52.892;6.148;2024-02-14T12:27:58;11.60;99.90
52435;DHT22;38354;52.892;6.148;2024-02-14T12:30:43;11.60;99.90
52435;DHT22;38354;52.892;6.148;2024-02-14T12:33:13;11.60;99.90
52435;DHT22;38354;52.892;6.148;2024-02-14T12:35:45;11.70;99.90
52435;DHT22;38354;52.892;6.148;2024-02-14T12:38:12;11.70;99.90
52435;DHT22;38354;52.892;6.148;2024-02-14T12:40:39;11.70;99.90
52435;DHT22;38354;52.892;6.148;2024-02-14T12:43:09;11.80;99.90
52435;DHT22;38354;52.892;6.148;2024-02-14T12:45:36;11.80;99.90
52435;DHT22;38354;52.892;6.148;2024-02-14T12:48:02;11.80;99.90
52435;DHT22;38354;52.892;6.148;2024-02-14T12:50:30;11.80;99.90
52435;DHT22;38354;52.892;6.148;2024-02-14T12:52:56;11.80;99.90
52435;DHT22;38354;52.892;6.148;2024-02-14T12:55:21;11.80;99.90
52435;DHT22;38354;52.892;6.148;2024-02-14T12:58:00;11.80;99.90
52435;DHT22;38354;52.892;6.148;2024-02-14T13:00:26;11.80;99.90
52435;DHT22;38354;52.892;6.148;2024-02-14T13:02:52;11.80;99.90
52435;DHT22;38354;52.892;6.148;2024-02-14T13:05:19;11.80;99.90
52435;DHT22;38354;52.892;6.148;2024-02-14T13:07:45;11.80;99.90
52435;DHT22;38354;52.892;6.148;2024-02-14T13:10:12;11.70;99.90
52435;DHT22;38354;52.892;6.148;2024-02-14T13:12:38;11.70;99.90
52435;DHT22;38354;52.892;6.148;2024-02-14T13:15:05;11.70;99.90
52435;DHT22;38354;52.892;6.148;2024-02-14T13:17:31;11.70;99.90
52435;DHT22;38354;52.892;6.148;2024-02-14T13:19:57;11.80;99.90
52435;DHT22;38354;52.892;6.148;2024-02-14T13:22:25;11.80;99.90
52435;DHT22;38354;52.892;6.148;2024-02-14T13:24:51;11.80;99.90
52435;DHT22;38354;52.892;6.148;2024-02-14T13:27:17;11.80;99.90
52435;DHT22;38354;52.892;6.148;2024-02-14T13:29:43;11.80;99.90
52435;DHT22;38354;52.892;6.148;2024-02-14T13:32:09;11.80;99.90
52435;DHT22;38354;52.892;6.148;2024-02-14T13:34:35;11.70;99.90
52435;DHT22;38354;52.892;6.148;2024-02-14T13:37:01;11.80;99.90
52435;DHT22;38354;52.892;6.148;2024-02-14T13:39:28;11.80;99.90
52435;DHT22;38354;52.892;6.148;2024-02-14T13:41:53;11.70;99.90
52435;DHT22;38354;52.892;6.148;2024-02-14T13:44:20;11.70;99.90
52435;DHT22;38354;52.892;6.148;2024-02-14T13:46:46;11.80;99.90
52435;DHT22;38354;52.892;6.148;2024-02-14T13:49:12;11.80;99.90
52435;DHT22;38354;52.892;6.148;2024-02-14T13:51:41;11.80;99.90
52435;DHT22;38354;52.892;6.148;2024-02-14T13:54:07;11.80;99.90
52435;DHT22;38354;52.892;6.148;2024-02-14T13:56:34;11.80;99.90
52435;DHT22;38354;52.892;6.148;2024-02-14T13:59:00;11.80;99.90
52435;DHT22;38354;52.892;6.148;2024-02-14T14:01:26;11.80;99.90
52435;DHT22;38354;52.892;6.148;2024-02-14T14:03:52;11.90;99.90
52435;DHT22;38354;52.892;6.148;2024-02-14T14:06:20;11.90;99.90
52435;DHT22;38354;52.892;6.148;2024-02-14T14:08:46;11.90;99.90
52435;DHT22;38354;52.892;6.148;2024-02-14T14:11:12;11.90;99.90
52435;DHT22;38354;52.892;6.148;2024-02-14T14:13:37;11.90;99.90
52435;DHT22;38354;52.892;6.148;2024-02-14T14:16:03;11.90;99.90
52435;DHT22;38354;52.892;6.148;2024-02-14T14:18:31;11.90;99.90
52435;DHT22;38354;52.892;6.148;2024-02-14T14:20:57;11.90;99.90
52435;DHT22;38354;52.892;6.148;2024-02-14T14:23:23;11.90;99.90
52435;DHT22;38354;52.892;6.148;2024-02-14T14:25:49;11.90;99.90
52435;DHT22;38354;52.892;6.148;2024-02-14T14:28:15;12.00;99.90
52435;DHT22;38354;52.892;6.148;2024-02-14T14:30:41;12.00;99.90
52435;DHT22;38354;52.892;6.148;2024-02-14T14:33:07;12.00;99.90
52435;DHT22;38354;52.892;6.148;2024-02-14T14:35:36;12.00;99.90
52435;DHT22;38354;52.892;6.148;2024-02-14T14:38:02;12.00;99.90
52435;DHT22;38354;52.892;6.148;2024-02-14T14:40:29;12.00;99.90
52435;DHT22;38354;52.892;6.148;2024-02-14T14:42:55;12.00;99.90
52435;DHT22;38354;52.892;6.148;2024-02-14T14:45:20;12.00;99.90
52435;DHT22;38354;52.892;6.148;2024-02-14T14:47:46;12.00;99.90
52435;DHT22;38354;52.892;6.148;2024-02-14T14:50:12;12.00;99.90
52435;DHT22;38354;52.892;6.148;2024-02-14T14:52:43;12.00;99.90
52435;DHT22;38354;52.892;6.148;2024-02-14T14:55:10;12.10;99.90
52435;DHT22;38354;52.892;6.148;2024-02-14T14:57:36;12.00;99.90
52435;DHT22;38354;52.892;6.148;2024-02-14T15:00:10;12.10;99.90
52435;DHT22;38354;52.892;6.148;2024-02-14T15:02:41;12.00;99.90
52435;DHT22;38354;52.892;6.148;2024-02-14T15:05:11;12.00;99.90
52435;DHT22;38354;52.892;6.148;2024-02-14T15:07:38;12.00;99.90
52435;DHT22;38354;52.892;6.148;2024-02-14T15:10:04;12.00;99.90
52435;DHT22;38354;52.892;6.148;2024-02-14T15:12:31;12.00;99.90
52435;DHT22;38354;52.892;6.148;2024-02-14T15:14:57;12.00;99.90
52435;DHT22;38354;52.892;6.148;2024-02-14T15:17:23;12.00;99.90
52435;DHT22;38354;52.892;6.148;2024-02-14T15:19:49;12.00;99.90
52435;DHT22;38354;52.892;6.148;2024-02-14T15:22:15;12.00;99.90
52435;DHT22;38354;52.892;6.148;2024-02-14T15:24:41;12.00;99.90
52435;DHT22;38354;52.892;6.148;2024-02-14T15:27:11;12.00;99.90
52435;DHT22;38354;52.892;6.148;2024-02-14T15:29:39;12.00;99.90
52435;DHT22;38354;52.892;6.148;2024-02-14T15:32:23;12.00;99.90
52435;DHT22;38354;52.892;6.148;2024-02-14T15:35:07;12.00;99.90
52435;DHT22;38354;52.892;6.148;2024-02-14T15:37:34;12.00;99.90
52435;DHT22;38354;52.892;6.148;2024-02-14T15:40:01;12.00;99.90
52435;DHT22;38354;52.892;6.148;2024-02-14T15:42:26;12.00;99.90
52435;DHT22;38354;52.892;6.148;2024-02-14T15:44:53;12.00;99.90
52435;DHT22;38354;52.892;6.148;2024-02-14T15:47:18;12.00;99.90
52435;DHT22;38354;52.892;6.148;2024-02-14T15:49:45;12.00;99.90
52435;DHT22;38354;52.892;6.148;2024-02-14T15:52:10;12.00;99.90
52435;DHT22;38354;52.892;6.148;2024-02-14T15:54:38;12.00;99.90
52435;DHT22;38354;52.892;6.148;2024-02-14T15:57:12;12.00;99.90
52435;DHT22;38354;52.892;6.148;2024-02-14T15:59:38;12.00;99.90
52435;DHT22;38354;52.892;6.148;2024-02-14T16:02:05;12.00;99.90
52435;DHT22;38354;52.892;6.148;2024-02-14T16:04:31;11.90;99.90
52435;DHT22;38354;52.892;6.148;2024-02-14T16:06:58;11.90;99.90
52435;DHT22;38354;52.892;6.148;2024-02-14T16:09:23;11.90;99.90
52435;DHT22;38354;52.892;6.148;2024-02-14T16:11:49;11.90;99.90
52435;DHT22;38354;52.892;6.148;2024-02-14T16:14:17;11.90;99.90
52435;DHT22;38354;52.892;6.148;2024-02-14T16:16:44;11.90;99.90
52435;DHT22;38354;52.892;6.148;2024-02-14T16:19:10;11.90;99.90
52435;DHT22;38354;52.892;6.148;2024-02-14T16:21:36;11.90;99.90
52435;DHT22;38354;52.892;6.148;2024-02-14T16:24:02;11.80;99.90
52435;DHT22;38354;52.892;6.148;2024-02-14T16:26:28;11.80;99.90
52435;DHT22;38354;52.892;6.148;2024-02-14T16:28:54;11.80;99.90
52435;DHT22;38354;52.892;6.148;2024-02-14T16:31:19;11.80;99.90
52435;DHT22;38354;52.892;6.148;2024-02-14T16:33:45;11.70;99.90
52435;DHT22;38354;52.892;6.148;2024-02-14T16:36:11;11.70;99.90
52435;DHT22;38354;52.892;6.148;2024-02-14T16:38:37;11.70;99.90
52435;DHT22;38354;52.892;6.148;2024-02-14T16:41:03;11.70;99.90
52435;DHT22;38354;52.892;6.148;2024-02-14T16:43:28;11.70;99.90
52435;DHT22;38354;52.892;6.148;2024-02-14T16:45:54;11.60;99.90
52435;DHT22;38354;52.892;6.148;2024-02-14T16:48:20;11.60;99.90
52435;DHT22;38354;52.892;6.148;2024-02-14T16:50:46;11.60;99.90
52435;DHT22;38354;52.892;6.148;2024-02-14T16:53:11;11.60;99.90
52435;DHT22;38354;52.892;6.148;2024-02-14T16:55:37;11.60;99.90
52435;DHT22;38354;52.892;6.148;2024-02-14T16:58:03;11.50;99.90
52435;DHT22;38354;52.892;6.148;2024-02-14T17:00:29;11.50;99.90
52435;DHT22;38354;52.892;6.148;2024-02-14T17:02:55;11.50;99.90
52435;DHT22;38354;52.892;6.148;2024-02-14T17:05:20;11.50;99.90
52435;DHT22;38354;52.892;6.148;2024-02-14T17:07:48;11.50;99.90
52435;DHT22;38354;52.892;6.148;2024-02-14T17:10:33;11.50;99.90
52435;DHT22;38354;52.892;6.148;2024-02-14T17:12:59;11.40;99.90
52435;DHT22;38354;52.892;6.148;2024-02-14T17:15:25;11.40;99.90
52435;DHT22;38354;52.892;6.148;2024-02-14T17:17:50;11.40;99.90
52435;DHT22;38354;52.892;6.148;2024-02-14T17:20:16;11.40;99.90
52435;DHT22;38354;52.892;6.148;2024-02-14T17:22:43;11.40;99.90
52435;DHT22;38354;52.892;6.148;2024-02-14T17:25:09;11.40;99.90
52435;DHT22;38354;52.892;6.148;2024-02-14T17:27:36;11.40;99.90
52435;DHT22;38354;52.892;6.148;2024-02-14T17:30:01;11.40;99.90
52435;DHT22;38354;52.892;6.148;2024-02-14T17:32:33;11.40;99.90
52435;DHT22;38354;52.892;6.148;2024-02-14T17:34:59;11.40;99.90
52435;DHT22;38354;52.892;6.148;2024-02-14T17:37:24;11.40;99.90
52435;DHT22;38354;52.892;6.148;2024-02-14T17:39:50;11.40;99.90
52435;DHT22;38354;52.892;6.148;2024-02-14T17:42:16;11.40;99.90
52435;DHT22;38354;52.892;6.148;2024-02-14T17:44:42;11.40;99.90
52435;DHT22;38354;52.892;6.148;2024-02-14T17:47:08;11.40;99.90
52435;DHT22;38354;52.892;6.148;2024-02-14T17:49:33;11.40;99.90
52435;DHT22;38354;52.892;6.148;2024-02-14T17:52:00;11.40;99.90
52435;DHT22;38354;52.892;6.148;2024-02-14T17:54:26;11.40;99.90
52435;DHT22;38354;52.892;6.148;2024-02-14T17:56:52;11.40;99.90
52435;DHT22;38354;52.892;6.148;2024-02-14T17:59:18;11.50;99.90
52435;DHT22;38354;52.892;6.148;2024-02-14T18:01:44;11.50;99.90
52435;DHT22;38354;52.892;6.148;2024-02-14T18:04:10;11.50;99.90
52435;DHT22;38354;52.892;6.148;2024-02-14T18:06:36;11.50;99.90
52435;DHT22;38354;52.892;6.148;2024-02-14T18:09:03;11.50;99.90
52435;DHT22;38354;52.892;6.148;2024-02-14T18:11:28;11.50;99.90
52435;DHT22;38354;52.892;6.148;2024-02-14T18:13:54;11.50;99.90
52435;DHT22;38354;52.892;6.148;2024-02-14T18:16:20;11.50;99.90
52435;DHT22;38354;52.892;6.148;2024-02-14T18:18:46;11.50;99.90
52435;DHT22;38354;52.892;6.148;2024-02-14T18:21:13;11.60;99.90
52435;DHT22;38354;52.892;6.148;2024-02-14T18:23:39;11.50;99.90
52435;DHT22;38354;52.892;6.148;2024-02-14T18:26:05;11.50;99.90
52435;DHT22;38354;52.892;6.148;2024-02-14T18:28:33;11.50;99.90
52435;DHT22;38354;52.892;6.148;2024-02-14T18:31:00;11.60;99.90
52435;DHT22;38354;52.892;6.148;2024-02-14T18:33:25;11.50;99.90
52435;DHT22;38354;52.892;6.148;2024-02-14T18:35:51;11.60;99.90
52435;DHT22;38354;52.892;6.148;2024-02-14T18:38:17;11.50;99.90
52435;DHT22;38354;52.892;6.148;2024-02-14T18:40:46;11.50;99.90
52435;DHT22;38354;52.892;6.148;2024-02-14T18:43:12;11.50;99.90
52435;DHT22;38354;52.892;6.148;2024-02-14T18:45:38;11.50;99.90
52435;DHT22;38354;52.892;6.148;2024-02-14T18:48:04;11.50;99.90
52435;DHT22;38354;52.892;6.148;2024-02-14T18:50:30;11.50;99.90
52435;DHT22;38354;52.892;6.148;2024-02-14T18:52:56;11.50;99.90
52435;DHT22;38354;52.892;6.148;2024-02-14T18:55:21;11.50;99.90
52435;DHT22;38354;52.892;6.148;2024-02-14T18:57:47;11.50;99.90
52435;DHT22;38354;52.892;6.148;2024-02-14T19:00:13;11.50;99.90
52435;DHT22;38354;52.892;6.148;2024-02-14T19:02:39;11.40;99.90
52435;DHT22;38354;52.892;6.148;2024-02-14T19:05:05;11.40;99.90
52435;DHT22;38354;52.892;6.148;2024-02-14T19:07:37;11.40;99.90
52435;DHT22;38354;52.892;6.148;2024-02-14T19:10:04;11.40;99.90
52435;DHT22;38354;52.892;6.148;2024-02-14T19:12:30;11.40;99.90
52435;DHT22;38354;52.892;6.148;2024-02-14T19:14:59;11.40;99.90
52435;DHT22;38354;52.892;6.148;2024-02-14T19:17:32;11.40;99.90
52435;DHT22;38354;52.892;6.148;2024-02-14T19:19:58;11.50;99.90
52435;DHT22;38354;52.892;6.148;2024-02-14T19:22:24;11.50;99.90
52435;DHT22;38354;52.892;6.148;2024-02-14T19:24:51;11.50;99.90
52435;DHT22;38354;52.892;6.148;2024-02-14T19:27:17;11.50;99.90
52435;DHT22;38354;52.892;6.148;2024-02-14T19:29:42;11.50;99.90
52435;DHT22;38354;52.892;6.148;2024-02-14T19:32:09;11.50;99.90